createdAt,value
2018-08-27T00:00:43.755Z,10.00
2018-08-27T00:03:11.901Z,10.00
2018-08-27T00:05:40.074Z,10.40
2018-08-27T00:08:08.246Z,10.50
2018-08-27T00:10:36.341Z,10.70
2018-08-27T00:13:04.425Z,11.00
2018-08-27T00:15:32.728Z,10.90
2018-08-27T00:18:00.897Z,10.50
2018-08-27T00:20:29.002Z,11.10
2018-08-27T00:22:57.114Z,11.00
2018-08-27T00:25:25.239Z,11.00
2018-08-27T00:27:53.308Z,11.10
2018-08-27T00:30:21.392Z,11.20
2018-08-27T00:32:49.470Z,11.40
2018-08-27T00:35:17.537Z,11.80
2018-08-27T00:37:45.624Z,11.50
2018-08-27T00:40:13.695Z,11.40
2018-08-27T00:42:41.781Z,11.40
2018-08-27T00:45:09.853Z,11.70
2018-08-27T00:47:37.935Z,12.00
2018-08-27T00:50:06.028Z,12.00
2018-08-27T00:52:34.112Z,12.20
2018-08-27T00:55:02.169Z,12.40
2018-08-27T00:57:30.269Z,12.80
2018-08-27T00:59:58.333Z,12.60
2018-08-27T01:02:26.756Z,12.70
2018-08-27T01:04:54.821Z,12.50
2018-08-27T01:07:23.519Z,13.10
2018-08-27T01:09:51.604Z,12.20
2018-08-27T01:12:19.677Z,13.10
2018-08-27T01:14:47.757Z,13.00
2018-08-27T01:17:15.821Z,13.20
2018-08-27T01:19:44.101Z,13.40
2018-08-27T01:22:13.156Z,14.10
2018-08-27T01:24:41.229Z,14.10
2018-08-27T01:27:09.305Z,14.10
2018-08-27T01:29:37.389Z,14.60
2018-08-27T01:32:10.816Z,14.10
2018-08-27T01:34:38.889Z,14.20
2018-08-27T01:37:06.972Z,14.20
2018-08-27T01:39:35.070Z,14.20
2018-08-27T01:42:03.132Z,14.30
2018-08-27T01:44:31.205Z,14.80
2018-08-27T01:46:59.291Z,14.60
2018-08-27T01:49:27.385Z,14.80
2018-08-27T01:51:55.456Z,14.80
2018-08-27T01:54:23.579Z,14.80
2018-08-27T01:56:51.606Z,14.60
2018-08-27T01:59:19.689Z,14.50
2018-08-27T02:01:47.773Z,15.10
2018-08-27T02:04:15.853Z,15.20
2018-08-27T02:06:49.165Z,15.00
2018-08-27T02:09:17.262Z,15.20
2018-08-27T02:11:45.333Z,15.50
2018-08-27T02:14:13.410Z,16.20
2018-08-27T02:16:41.485Z,16.10
2018-08-27T02:19:09.576Z,15.80
2018-08-27T02:21:37.677Z,16.10
2018-08-27T02:24:05.956Z,16.40
2018-08-27T02:26:34.062Z,16.60
2018-08-27T02:29:02.153Z,16.60
2018-08-27T02:31:30.221Z,16.80
2018-08-27T02:33:58.592Z,16.60
2018-08-27T02:36:26.661Z,16.80
2018-08-27T02:38:54.749Z,16.80
2018-08-27T02:41:22.808Z,16.80
2018-08-27T02:43:50.900Z,16.80
2018-08-27T02:46:18.965Z,16.50
2018-08-27T02:48:47.055Z,16.40
2018-08-27T02:51:15.117Z,16.70
2018-08-27T02:53:43.201Z,16.70
2018-08-27T02:56:11.277Z,16.70
2018-08-27T02:58:39.545Z,17.10
2018-08-27T03:01:07.617Z,16.70
2018-08-27T03:03:35.716Z,16.70
2018-08-27T03:06:03.817Z,16.70
2018-08-27T03:08:31.919Z,16.70
2018-08-27T03:11:00.191Z,16.70
2018-08-27T03:13:28.321Z,16.90
2018-08-27T03:15:56.389Z,16.70
2018-08-27T03:18:24.544Z,16.70
2018-08-27T03:20:52.590Z,16.80
2018-08-27T03:23:20.661Z,16.50
2018-08-27T03:25:48.761Z,16.70
2018-08-27T03:28:16.834Z,16.70
2018-08-27T03:30:44.902Z,16.70
2018-08-27T03:33:12.989Z,16.20
2018-08-27T03:35:41.068Z,16.20
2018-08-27T03:38:09.161Z,16.60
2018-08-27T03:40:37.268Z,16.40
2018-08-27T03:43:05.590Z,16.10
2018-08-27T03:45:33.685Z,15.70
2018-08-27T03:48:01.781Z,15.70
2018-08-27T03:50:29.872Z,15.50
2018-08-27T03:52:58.028Z,15.60
2018-08-27T03:55:26.116Z,15.30
2018-08-27T03:57:54.185Z,15.50
2018-08-27T04:00:22.269Z,15.40
2018-08-27T04:02:50.350Z,15.20
2018-08-27T04:05:18.464Z,15.00
2018-08-27T04:07:46.507Z,15.50
2018-08-27T04:10:14.811Z,15.70
2018-08-27T04:12:42.906Z,15.40
2018-08-27T04:15:10.973Z,15.60
2018-08-27T04:17:39.057Z,15.90
2018-08-27T04:20:07.134Z,16.00
2018-08-27T04:22:35.223Z,15.70
2018-08-27T04:25:03.293Z,16.40
2018-08-27T04:27:31.385Z,16.50
2018-08-27T04:29:59.475Z,16.10
2018-08-27T04:32:27.537Z,16.00
2018-08-27T04:34:55.651Z,15.70
2018-08-27T04:37:23.686Z,16.10
2018-08-27T04:39:51.813Z,15.90
2018-08-27T04:42:19.888Z,15.90
2018-08-27T04:44:47.970Z,15.80
2018-08-27T04:47:16.058Z,15.70
2018-08-27T04:49:44.149Z,16.00
2018-08-27T04:52:12.218Z,16.00
2018-08-27T04:54:40.309Z,15.80
2018-08-27T04:57:08.380Z,15.80
2018-08-27T04:59:42.205Z,15.50
2018-08-27T05:02:10.319Z,15.10
2018-08-27T05:04:38.392Z,15.10
2018-08-27T05:07:06.773Z,15.30
2018-08-27T05:09:34.904Z,15.50
2018-08-27T05:12:03.001Z,15.10
2018-08-27T05:14:31.073Z,14.90
2018-08-27T05:16:59.150Z,14.80
2018-08-27T05:19:27.222Z,15.10
2018-08-27T05:21:55.302Z,15.00
2018-08-27T05:24:23.393Z,15.10
2018-08-27T05:26:51.470Z,14.90
2018-08-27T05:29:19.626Z,15.20
2018-08-27T05:31:47.888Z,15.10
2018-08-27T05:34:15.964Z,15.30
2018-08-27T05:36:44.057Z,15.00
2018-08-27T05:39:12.133Z,14.80
2018-08-27T05:41:40.214Z,15.30
2018-08-27T05:44:08.344Z,15.30
2018-08-27T05:46:36.427Z,15.00
2018-08-27T05:49:04.502Z,15.00
2018-08-27T05:51:32.876Z,14.80
2018-08-27T05:54:00.921Z,14.80
2018-08-27T05:56:29.021Z,14.70
2018-08-27T05:58:57.125Z,14.50
2018-08-27T06:01:25.539Z,14.60
2018-08-27T06:03:53.582Z,14.60
2018-08-27T06:06:21.668Z,14.40
2018-08-27T06:08:49.774Z,14.50
2018-08-27T06:11:17.891Z,14.20
2018-08-27T06:13:45.922Z,14.50
2018-08-27T06:16:14.110Z,14.20
2018-08-27T06:18:42.101Z,14.00
2018-08-27T06:21:10.189Z,14.70
2018-08-27T06:23:38.269Z,14.20
2018-08-27T06:26:06.365Z,14.50
2018-08-27T06:28:34.453Z,14.70
2018-08-27T06:31:02.536Z,14.00
2018-08-27T06:33:30.617Z,14.20
2018-08-27T06:35:58.799Z,14.20
2018-08-27T06:38:27.071Z,14.20
2018-08-27T06:40:55.142Z,14.20
2018-08-27T06:43:23.233Z,14.50
2018-08-27T06:45:51.332Z,15.00
2018-08-27T06:48:19.430Z,16.60
2018-08-27T06:50:47.497Z,17.30
2018-08-27T06:53:15.787Z,17.50
2018-08-27T06:55:44.402Z,17.50
2018-08-27T06:58:13.121Z,18.60
2018-08-27T07:00:41.875Z,18.00
2018-08-27T07:03:10.150Z,18.00
2018-08-27T07:05:39.299Z,17.00
2018-08-27T07:08:07.801Z,16.10
2018-08-27T07:10:36.328Z,16.00
2018-08-27T07:13:05.670Z,15.40
2018-08-27T07:15:34.039Z,15.10
2018-08-27T07:18:02.575Z,14.60
2018-08-27T07:20:31.959Z,14.80
2018-08-27T07:23:00.642Z,14.70
2018-08-27T07:25:30.118Z,15.10
2018-08-27T07:27:58.413Z,15.70
2018-08-27T07:30:26.652Z,15.50
2018-08-27T07:32:54.750Z,15.60
2018-08-27T07:35:22.829Z,15.90
2018-08-27T07:37:50.926Z,16.00
2018-08-27T07:40:18.990Z,17.30
2018-08-27T07:42:47.069Z,17.60
2018-08-27T07:45:15.263Z,17.90
2018-08-27T07:47:43.341Z,17.90
2018-08-27T07:50:11.409Z,17.90
2018-08-27T07:52:39.732Z,17.80
2018-08-27T07:55:08.134Z,17.70
2018-08-27T07:57:36.247Z,17.50
2018-08-27T08:00:06.530Z,17.20
2018-08-27T08:02:34.626Z,17.00
2018-08-27T08:05:02.841Z,18.00
2018-08-27T08:07:30.970Z,18.70
2018-08-27T08:09:59.040Z,18.90
2018-08-27T08:12:27.113Z,18.60
2018-08-27T08:14:55.204Z,18.90
2018-08-27T08:17:23.319Z,18.10
2018-08-27T08:19:51.399Z,18.10
2018-08-27T08:22:19.491Z,17.40
2018-08-27T08:24:47.573Z,18.10
2018-08-27T08:27:15.665Z,17.90
2018-08-27T08:29:44.446Z,18.10
2018-08-27T08:32:13.271Z,17.90
2018-08-27T08:34:41.367Z,18.20
2018-08-27T08:37:09.447Z,18.20
2018-08-27T08:39:37.572Z,18.20
2018-08-27T08:42:06.317Z,18.30
2018-08-27T08:44:34.421Z,19.10
2018-08-27T08:47:03.018Z,19.50
2018-08-27T08:49:31.102Z,20.20
2018-08-27T08:51:59.204Z,20.50
2018-08-27T08:54:27.277Z,20.60
2018-08-27T08:56:55.408Z,21.10
2018-08-27T08:59:23.482Z,22.10
2018-08-27T09:01:51.603Z,22.00
2018-08-27T09:04:19.677Z,23.40
2018-08-27T09:06:47.768Z,24.30
2018-08-27T09:09:15.860Z,24.80
2018-08-27T09:11:43.962Z,25.00
2018-08-27T09:14:12.133Z,25.70
2018-08-27T09:16:40.334Z,25.30
2018-08-27T09:19:08.387Z,25.30
2018-08-27T09:21:36.458Z,25.60
2018-08-27T09:24:05.362Z,25.30
2018-08-27T09:26:33.441Z,25.60
2018-08-27T09:29:01.517Z,25.60
2018-08-27T09:31:30.621Z,26.00
2018-08-27T09:34:00.611Z,26.00
2018-08-27T09:36:29.478Z,26.80
2018-08-27T09:38:58.169Z,26.60
2018-08-27T09:41:27.196Z,27.40
2018-08-27T09:43:55.270Z,27.80
2018-08-27T09:46:23.467Z,28.60
2018-08-27T09:48:51.569Z,28.70
2018-08-27T09:51:19.737Z,30.00
2018-08-27T09:53:47.885Z,29.80
2018-08-27T09:56:16.839Z,30.10
2018-08-27T09:58:44.963Z,30.30
2018-08-27T10:01:20.567Z,31.30
2018-08-27T10:03:48.671Z,30.70
2018-08-27T10:06:16.747Z,31.60
2018-08-27T10:08:44.864Z,30.50
2018-08-27T10:11:12.933Z,29.90
2018-08-27T10:13:41.084Z,30.10
2018-08-27T10:16:09.148Z,29.60
2018-08-27T10:18:37.213Z,29.60
2018-08-27T10:21:05.297Z,30.30
2018-08-27T10:23:33.552Z,30.30
2018-08-27T10:26:01.643Z,31.00
2018-08-27T10:28:29.724Z,32.10
2018-08-27T10:30:57.790Z,31.60
2018-08-27T10:33:25.865Z,31.90
2018-08-27T10:35:53.964Z,31.10
2018-08-27T10:38:22.034Z,30.90
2018-08-27T10:40:50.119Z,30.30
2018-08-27T10:43:18.206Z,30.50
2018-08-27T10:45:46.279Z,30.70
2018-08-27T10:48:14.370Z,29.20
2018-08-27T10:50:42.442Z,29.00
2018-08-27T10:53:10.566Z,28.70
2018-08-27T10:55:38.642Z,27.10
2018-08-27T10:58:06.923Z,27.10
2018-08-27T11:00:34.986Z,27.00
2018-08-27T11:03:03.122Z,26.90
2018-08-27T11:05:31.198Z,27.00
2018-08-27T11:07:59.268Z,27.40
2018-08-27T11:10:27.349Z,28.20
2018-08-27T11:12:55.425Z,29.50
2018-08-27T11:15:23.523Z,30.00
2018-08-27T11:17:51.585Z,32.30
2018-08-27T11:20:19.818Z,34.50
2018-08-27T11:22:47.758Z,35.50
2018-08-27T11:25:15.834Z,36.40
2018-08-27T11:27:43.931Z,35.20
2018-08-27T11:30:12.009Z,34.40
2018-08-27T11:32:40.104Z,35.20
2018-08-27T11:35:09.081Z,34.20
2018-08-27T11:37:37.693Z,34.50
2018-08-27T11:40:08.849Z,37.20
2018-08-27T11:42:38.275Z,34.60
2018-08-27T11:45:06.521Z,34.70
2018-08-27T11:47:34.607Z,36.40
2018-08-27T11:50:02.707Z,35.50
2018-08-27T11:52:30.769Z,34.30
2018-08-27T11:54:59.313Z,31.90
2018-08-27T11:57:27.302Z,30.10
2018-08-27T11:59:55.391Z,29.20
2018-08-27T12:02:23.493Z,30.40
2018-08-27T12:04:51.809Z,29.90
2018-08-27T12:07:19.887Z,29.90
2018-08-27T12:09:47.975Z,29.30
2018-08-27T12:12:16.054Z,28.60
2018-08-27T12:14:44.136Z,28.70
2018-08-27T12:17:12.219Z,28.40
2018-08-27T12:19:40.332Z,28.00
2018-08-27T12:22:08.409Z,28.40
2018-08-27T12:24:36.507Z,28.80
2018-08-27T12:27:04.684Z,28.00
2018-08-27T12:29:32.774Z,28.50
2018-08-27T12:32:01.179Z,27.60
2018-08-27T12:34:29.325Z,28.10
2018-08-27T12:36:57.427Z,27.90
2018-08-27T12:39:25.518Z,28.90
2018-08-27T12:41:53.584Z,27.20
2018-08-27T12:44:21.673Z,27.50
2018-08-27T12:46:49.737Z,27.70
2018-08-27T12:49:17.817Z,27.50
2018-08-27T12:51:45.889Z,27.90
2018-08-27T12:54:13.983Z,27.60
2018-08-27T12:56:42.086Z,27.30
2018-08-27T12:59:10.175Z,27.90
2018-08-27T13:01:38.253Z,27.80
2018-08-27T13:04:06.969Z,28.20
2018-08-27T13:06:35.048Z,28.10
2018-08-27T13:09:03.430Z,27.20
2018-08-27T13:11:32.338Z,27.20
2018-08-27T13:14:01.071Z,27.50
2018-08-27T13:16:29.302Z,27.00
2018-08-27T13:18:59.110Z,27.10
2018-08-27T13:21:27.254Z,27.30
2018-08-27T13:23:56.005Z,27.10
2018-08-27T13:26:24.210Z,26.50
2018-08-27T13:28:52.317Z,27.40
2018-08-27T13:31:20.428Z,26.10
2018-08-27T13:33:48.482Z,25.40
2018-08-27T13:36:16.570Z,25.00
2018-08-27T13:38:44.651Z,24.50
2018-08-27T13:41:12.735Z,24.80
2018-08-27T13:43:40.805Z,24.60
2018-08-27T13:46:08.920Z,24.50
2018-08-27T13:48:37.050Z,25.30
2018-08-27T13:51:05.096Z,24.30
2018-08-27T13:53:33.165Z,24.00
2018-08-27T13:56:01.242Z,23.60
2018-08-27T13:58:29.310Z,24.10
2018-08-27T14:00:57.462Z,23.30
2018-08-27T14:03:25.578Z,23.10
2018-08-27T14:05:53.665Z,23.50
2018-08-27T14:08:21.736Z,23.10
2018-08-27T14:10:49.865Z,23.00
2018-08-27T14:13:17.913Z,22.90
2018-08-27T14:15:46.045Z,22.90
2018-08-27T14:18:14.098Z,22.00
2018-08-27T14:20:42.236Z,22.10
2018-08-27T14:23:10.273Z,22.50
2018-08-27T14:25:38.402Z,21.60
2018-08-27T14:28:06.481Z,22.00
2018-08-27T14:30:34.568Z,20.70
2018-08-27T14:33:02.666Z,20.90
2018-08-27T14:35:30.777Z,20.90
2018-08-27T14:37:58.813Z,20.80
2018-08-27T14:40:26.901Z,20.40
2018-08-27T14:42:54.981Z,20.50
2018-08-27T14:45:23.057Z,19.60
2018-08-27T14:47:51.210Z,19.80
2018-08-27T14:50:19.237Z,19.70
2018-08-27T14:52:47.331Z,19.80
2018-08-27T14:55:15.430Z,19.80
2018-08-27T14:57:43.505Z,20.10
2018-08-27T15:00:11.592Z,20.70
2018-08-27T15:02:39.664Z,20.70
2018-08-27T15:05:08.069Z,20.40
2018-08-27T15:07:36.158Z,20.30
2018-08-27T15:10:04.525Z,20.10
2018-08-27T15:12:32.606Z,20.30
2018-08-27T15:15:00.685Z,20.60
2018-08-27T15:17:28.780Z,20.40
2018-08-27T15:19:56.889Z,20.60
2018-08-27T15:22:24.969Z,20.60
2018-08-27T15:24:53.080Z,20.60
2018-08-27T15:27:21.176Z,20.60
2018-08-27T15:29:49.277Z,20.70
2018-08-27T15:32:17.348Z,21.00
2018-08-27T15:34:45.437Z,20.60
2018-08-27T15:37:13.541Z,20.80
2018-08-27T15:39:41.614Z,21.10
2018-08-27T15:42:09.690Z,21.10
2018-08-27T15:44:37.818Z,21.40
2018-08-27T15:47:05.866Z,21.80
2018-08-27T15:49:33.987Z,22.20
2018-08-27T15:52:02.028Z,22.00
2018-08-27T15:54:30.121Z,21.90
2018-08-27T15:56:58.213Z,22.00
2018-08-27T15:59:26.285Z,21.80
2018-08-27T16:01:54.365Z,21.70
2018-08-27T16:04:22.626Z,22.10
2018-08-27T16:06:50.590Z,22.00
2018-08-27T16:09:18.668Z,21.80
2018-08-27T16:11:46.759Z,21.60
2018-08-27T16:14:14.837Z,20.60
2018-08-27T16:16:42.916Z,20.00
2018-08-27T16:19:11.022Z,18.70
2018-08-27T16:21:39.120Z,18.70
2018-08-27T16:24:07.233Z,17.80
2018-08-27T16:26:35.318Z,17.70
2018-08-27T16:29:03.432Z,18.80
2018-08-27T16:31:31.498Z,18.70
2018-08-27T16:33:59.569Z,18.90
2018-08-27T16:36:27.653Z,19.30
2018-08-27T16:38:55.732Z,19.60
2018-08-27T16:41:23.821Z,19.20
2018-08-27T16:43:51.919Z,18.50
2018-08-27T16:46:20.004Z,17.90
2018-08-27T16:48:48.072Z,18.20
2018-08-27T16:51:16.189Z,17.60
2018-08-27T16:53:44.266Z,17.70
2018-08-27T16:56:12.366Z,17.00
2018-08-27T16:58:40.451Z,17.30
2018-08-27T17:01:08.537Z,17.80
2018-08-27T17:03:36.834Z,17.80
2018-08-27T17:06:04.922Z,18.40
2018-08-27T17:08:33.025Z,19.00
2018-08-27T17:11:01.109Z,19.40
2018-08-27T17:13:29.188Z,20.40
2018-08-27T17:15:57.293Z,20.10
2018-08-27T17:18:25.384Z,20.20
2018-08-27T17:20:53.485Z,20.00
2018-08-27T17:23:21.549Z,20.00
2018-08-27T17:25:49.617Z,20.20
2018-08-27T17:28:17.726Z,20.10
2018-08-27T17:30:45.803Z,20.20
2018-08-27T17:33:13.892Z,19.90
2018-08-27T17:35:41.982Z,19.60
2018-08-27T17:38:10.251Z,19.70
2018-08-27T17:40:38.326Z,19.80
2018-08-27T17:43:06.401Z,20.00
2018-08-27T17:45:34.489Z,20.10
2018-08-27T17:48:02.575Z,20.30
2018-08-27T17:50:30.701Z,20.50
2018-08-27T17:52:58.849Z,20.60
2018-08-27T17:55:26.933Z,20.80
2018-08-27T17:57:55.014Z,20.70
2018-08-27T18:00:23.110Z,21.10
2018-08-27T18:02:51.197Z,21.50
2018-08-27T18:05:19.273Z,21.60
2018-08-27T18:07:47.365Z,21.80
2018-08-27T18:10:15.447Z,21.90
2018-08-27T18:12:43.528Z,22.20
2018-08-27T18:15:11.913Z,22.50
2018-08-27T18:17:40.028Z,22.40
2018-08-27T18:20:08.267Z,22.60
2018-08-27T18:22:36.425Z,22.30
2018-08-27T18:25:04.509Z,22.80
2018-08-27T18:27:32.524Z,23.20
2018-08-27T18:30:00.589Z,24.10
2018-08-27T18:32:28.694Z,24.00
2018-08-27T18:34:56.900Z,24.00
2018-08-27T18:37:24.855Z,24.30
2018-08-27T18:39:53.116Z,24.80
2018-08-27T18:42:21.202Z,25.10
2018-08-27T18:44:49.290Z,25.30
2018-08-27T18:47:17.377Z,25.40
2018-08-27T18:49:45.444Z,25.80
2018-08-27T18:52:13.797Z,25.80
2018-08-27T18:54:41.885Z,25.70
2018-08-27T18:57:10.002Z,26.00
2018-08-27T18:59:38.417Z,26.10
2018-08-27T19:02:06.526Z,26.30
2018-08-27T19:04:34.596Z,26.10
2018-08-27T19:07:02.730Z,26.20
2018-08-27T19:09:30.806Z,26.20
2018-08-27T19:11:58.889Z,26.30
2018-08-27T19:14:26.977Z,26.40
2018-08-27T19:16:55.061Z,26.40
2018-08-27T19:19:23.145Z,26.20
2018-08-27T19:21:51.279Z,26.20
2018-08-27T19:24:19.410Z,26.60
2018-08-27T19:26:47.434Z,26.80
2018-08-27T19:29:15.538Z,26.90
2018-08-27T19:31:43.619Z,27.00
2018-08-27T19:34:11.693Z,26.80
2018-08-27T19:36:39.880Z,28.10
2018-08-27T19:39:07.973Z,27.90
2018-08-27T19:41:36.113Z,28.50
2018-08-27T19:44:04.230Z,29.40
2018-08-27T19:46:32.325Z,29.80
2018-08-27T19:49:00.897Z,30.00
2018-08-27T19:51:29.018Z,30.00
2018-08-27T19:53:57.076Z,29.60
2018-08-27T19:56:25.178Z,30.00
2018-08-27T19:58:53.257Z,31.50
2018-08-27T20:01:21.510Z,32.30
2018-08-27T20:03:49.636Z,33.40
2018-08-27T20:06:17.812Z,34.20
2018-08-27T20:08:46.438Z,34.60
2018-08-27T20:11:14.519Z,33.90
2018-08-27T20:13:42.619Z,36.30
2018-08-27T20:16:10.758Z,35.90
2018-08-27T20:18:38.789Z,34.60
2018-08-27T20:21:06.869Z,34.30
2018-08-27T20:23:34.966Z,33.40
2018-08-27T20:26:03.113Z,33.00
2018-08-27T20:28:31.140Z,33.30
2018-08-27T20:30:59.212Z,32.10
2018-08-27T20:33:27.299Z,32.30
2018-08-27T20:35:55.380Z,32.00
2018-08-27T20:38:23.512Z,32.40
2018-08-27T20:40:51.590Z,32.20
2018-08-27T20:43:19.700Z,32.20
2018-08-27T20:45:47.841Z,32.00
2018-08-27T20:48:15.897Z,31.60
2018-08-27T20:50:44.033Z,31.60
2018-08-27T20:53:12.089Z,31.60
2018-08-27T20:55:40.170Z,31.70
2018-08-27T20:58:08.257Z,32.90
2018-08-27T21:00:36.365Z,32.60
2018-08-27T21:03:04.473Z,32.60
2018-08-27T21:05:32.532Z,32.30
2018-08-27T21:08:00.646Z,32.70
2018-08-27T21:10:29.034Z,32.80
2018-08-27T21:12:57.097Z,33.00
2018-08-27T21:15:25.232Z,33.40
2018-08-27T21:17:54.068Z,33.60
2018-08-27T21:20:22.948Z,33.80
2018-08-27T21:22:51.100Z,34.00
2018-08-27T21:25:19.275Z,33.90
2018-08-27T21:27:48.481Z,33.70
2018-08-27T21:30:17.921Z,33.80
2018-08-27T21:32:45.976Z,34.50
2018-08-27T21:35:14.145Z,34.90
2018-08-27T21:37:42.212Z,35.10
2018-08-27T21:40:10.306Z,35.90
2018-08-27T21:42:38.373Z,35.90
2018-08-27T21:45:06.676Z,35.90
2018-08-27T21:47:34.775Z,36.70
2018-08-27T21:50:02.870Z,36.80
2018-08-27T21:52:31.233Z,36.90
2018-08-27T21:54:59.349Z,37.20
2018-08-27T21:57:27.417Z,37.30
2018-08-27T21:59:55.517Z,38.40
2018-08-27T22:02:28.916Z,37.30
2018-08-27T22:04:57.010Z,37.50
2018-08-27T22:07:25.085Z,37.40
2018-08-27T22:09:53.173Z,37.70
2018-08-27T22:12:21.249Z,37.60
2018-08-27T22:14:50.136Z,37.60
2018-08-27T22:17:18.209Z,37.20
2018-08-27T22:19:46.285Z,37.40
2018-08-27T22:22:14.423Z,37.30
2018-08-27T22:24:42.442Z,36.90
2018-08-27T22:27:10.520Z,36.50
2018-08-27T22:29:38.615Z,36.40
2018-08-27T22:32:06.714Z,36.20
2018-08-27T22:34:34.817Z,36.50
2018-08-27T22:37:03.814Z,36.60
2018-08-27T22:39:31.906Z,37.00
2018-08-27T22:41:59.978Z,37.60
2018-08-27T22:44:28.056Z,37.90
2018-08-27T22:46:56.136Z,38.10
2018-08-27T22:49:24.239Z,38.40
2018-08-27T22:51:52.313Z,38.50
2018-08-27T22:54:20.398Z,38.40
2018-08-27T22:56:48.473Z,38.70
2018-08-27T22:59:16.565Z,38.90
2018-08-27T23:01:44.646Z,39.00
2018-08-27T23:04:18.149Z,39.50
2018-08-27T23:06:46.234Z,39.70
2018-08-27T23:09:14.334Z,40.30
2018-08-27T23:11:42.426Z,40.60
2018-08-27T23:14:10.508Z,41.20
2018-08-27T23:16:38.572Z,41.30
2018-08-27T23:19:06.653Z,41.20
2018-08-27T23:21:34.720Z,41.80
2018-08-27T23:24:02.804Z,41.90
2018-08-27T23:26:30.901Z,41.70
2018-08-27T23:28:58.983Z,41.80
2018-08-27T23:31:27.049Z,41.30
2018-08-27T23:33:55.125Z,41.60
2018-08-27T23:36:23.405Z,41.00
2018-08-27T23:38:51.486Z,41.00
2018-08-27T23:41:19.573Z,41.00
2018-08-27T23:43:47.656Z,40.70
2018-08-27T23:46:15.733Z,40.60
2018-08-27T23:48:43.877Z,40.80
2018-08-27T23:51:11.974Z,40.20
2018-08-27T23:53:40.062Z,40.70
2018-08-27T23:56:08.157Z,40.70
2018-08-27T23:58:36.351Z,40.80
